sensor_id;sensor_type;location;lat;lon;timestamp;pressure;altitude;pressure_sealevel;temperature;humidity
59859;BME280;45734;53.648;9.566;2023-11-21T07:09:30;54848.38;;;-145.06;100.00
59859;BME280;45734;53.648;9.566;2023-11-21T07:14:31;54846.34;;;-145.06;100.00
59859;BME280;45734;53.648;9.566;2023-11-21T07:19:32;54854.44;;;-145.06;100.00
59859;BME280;45734;53.648;9.566;2023-11-21T07:24:32;54824.06;;;-145.06;100.00
59859;BME280;45734;53.648;9.566;2023-11-21T07:29:32;54834.19;;;-145.06;100.00
59859;BME280;45734;53.648;9.566;2023-11-21T07:34:33;54828.13;;;-145.06;100.00
59859;BME280;45734;53.648;9.566;2023-11-21T07:39:33;54852.44;;;-145.06;100.00
59859;BME280;45734;53.648;9.566;2023-11-21T07:44:33;54822.03;;;-145.06;100.00
59859;BME280;45734;53.648;9.566;2023-11-21T07:49:34;54870.66;;;-145.06;100.00
59859;BME280;45734;53.648;9.566;2023-11-21T07:54:34;54868.63;;;-145.06;100.00
59859;BME280;45734;53.648;9.566;2023-11-21T07:59:36;54852.44;;;-145.06;100.00
59859;BME280;45734;53.648;9.566;2023-11-21T08:04:36;54860.53;;;-145.06;100.00
59859;BME280;45734;53.648;9.566;2023-11-21T08:09:36;54884.84;;;-145.06;100.00
59859;BME280;45734;53.648;9.566;2023-11-21T08:14:36;54828.13;;;-145.06;100.00
59859;BME280;45734;53.648;9.566;2023-11-21T08:19:39;54852.44;;;-145.06;100.00
59859;BME280;45734;53.648;9.566;2023-11-21T08:24:39;54862.56;;;-145.06;100.00
59859;BME280;45734;53.648;9.566;2023-11-21T08:29:39;54850.41;;;-145.06;100.00
59859;BME280;45734;53.648;9.566;2023-11-21T08:34:39;54856.47;;;-145.06;100.00
59859;BME280;45734;53.648;9.566;2023-11-21T08:39:47;54864.59;;;-145.06;100.00
59859;BME280;45734;53.648;9.566;2023-11-21T08:44:48;54876.72;;;-145.06;100.00
59859;BME280;45734;53.648;9.566;2023-11-21T08:49:48;54848.38;;;-145.06;100.00
59859;BME280;45734;53.648;9.566;2023-11-21T08:54:51;54832.16;;;-145.06;100.00
59859;BME280;45734;53.648;9.566;2023-11-21T08:59:59;54872.69;;;-145.06;100.00
59859;BME280;45734;53.648;9.566;2023-11-21T09:05:00;54852.44;;;-145.06;100.00
59859;BME280;45734;53.648;9.566;2023-11-21T09:10:03;54870.66;;;-145.06;100.00
59859;BME280;45734;53.648;9.566;2023-11-21T09:15:05;54811.91;;;-145.06;100.00
59859;BME280;45734;53.648;9.566;2023-11-21T09:20:06;54805.84;;;-145.06;100.00
59859;BME280;45734;53.648;9.566;2023-11-21T09:25:10;54844.31;;;-145.06;100.00
59859;BME280;45734;53.648;9.566;2023-11-21T09:30:11;54856.47;;;-145.06;100.00
59859;BME280;45734;53.648;9.566;2023-11-21T09:35:11;54852.44;;;-145.06;100.00
59859;BME280;45734;53.648;9.566;2023-11-21T09:40:14;54824.06;;;-145.06;100.00
59859;BME280;45734;53.648;9.566;2023-11-21T09:45:24;54809.88;;;-145.06;100.00
59859;BME280;45734;53.648;9.566;2023-11-21T09:50:26;54822.03;;;-145.06;100.00
59859;BME280;45734;53.648;9.566;2023-11-21T09:55:29;54799.75;;;-145.06;100.00
59859;BME280;45734;53.648;9.566;2023-11-21T10:00:32;54813.94;;;-145.06;100.00
59859;BME280;45734;53.648;9.566;2023-11-21T10:05:33;54807.88;;;-145.06;100.00
59859;BME280;45734;53.648;9.566;2023-11-21T10:10:35;54856.47;;;-145.06;100.00
59859;BME280;45734;53.648;9.566;2023-11-21T10:15:36;54834.19;;;-145.06;100.00
59859;BME280;45734;53.648;9.566;2023-11-21T10:20:36;54850.41;;;-145.06;100.00
59859;BME280;45734;53.648;9.566;2023-11-21T10:25:39;54856.47;;;-145.06;100.00
59859;BME280;45734;53.648;9.566;2023-11-21T10:30:40;54886.88;;;-145.06;100.00
59859;BME280;45734;53.648;9.566;2023-11-21T10:40:47;54884.84;;;-145.06;100.00
59859;BME280;45734;53.648;9.566;2023-11-21T10:45:47;54872.69;;;-145.06;100.00
59859;BME280;45734;53.648;9.566;2023-11-21T10:50:48;54852.44;;;-145.06;100.00
59859;BME280;45734;53.648;9.566;2023-11-21T10:55:48;54872.69;;;-145.06;100.00
59859;BME280;45734;53.648;9.566;2023-11-21T11:00:48;54870.66;;;-145.06;100.00
59859;BME280;45734;53.648;9.566;2023-11-21T11:05:50;54864.59;;;-145.06;100.00
59859;BME280;45734;53.648;9.566;2023-11-21T11:10:52;54822.03;;;-145.06;100.00
59859;BME280;45734;53.648;9.566;2023-11-21T11:15:58;54874.72;;;-145.06;100.00
59859;BME280;45734;53.648;9.566;2023-11-21T11:21:16;54872.69;;;-145.06;100.00
59859;BME280;45734;53.648;9.566;2023-11-21T11:26:32;54860.53;;;-145.06;100.00
59859;BME280;45734;53.648;9.566;2023-11-21T11:36:54;54892.94;;;-145.06;100.00
59859;BME280;45734;53.648;9.566;2023-11-21T11:41:58;54884.84;;;-145.06;100.00
59859;BME280;45734;53.648;9.566;2023-11-21T11:47:01;54884.84;;;-145.06;100.00
59859;BME280;45734;53.648;9.566;2023-11-21T11:57:41;54913.19;;;-145.06;100.00
59859;BME280;45734;53.648;9.566;2023-11-21T12:02:44;54872.69;;;-145.06;100.00
59859;BME280;45734;53.648;9.566;2023-11-21T12:07:46;54878.75;;;-145.06;100.00
59859;BME280;45734;53.648;9.566;2023-11-21T12:12:49;54880.78;;;-145.06;100.00
59859;BME280;45734;53.648;9.566;2023-11-21T12:17:49;54886.88;;;-145.06;100.00
59859;BME280;45734;53.648;9.566;2023-11-21T12:22:54;54931.44;;;-145.06;100.00
59859;BME280;45734;53.648;9.566;2023-11-21T12:27:55;54961.81;;;-145.06;100.00
59859;BME280;45734;53.648;9.566;2023-11-21T12:32:56;54886.88;;;-145.06;100.00
59859;BME280;45734;53.648;9.566;2023-11-21T12:37:57;54909.16;;;-145.06;100.00
59859;BME280;45734;53.648;9.566;2023-11-21T12:42:59;54923.31;;;-145.06;100.00
59859;BME280;45734;53.648;9.566;2023-11-21T12:48:03;54909.16;;;-145.06;100.00
59859;BME280;45734;53.648;9.566;2023-11-21T12:53:10;54897.00;;;-145.06;100.00
59859;BME280;45734;53.648;9.566;2023-11-21T12:58:12;54933.44;;;-145.06;100.00
59859;BME280;45734;53.648;9.566;2023-11-21T13:03:15;54913.19;;;-145.06;100.00
59859;BME280;45734;53.648;9.566;2023-11-21T13:08:21;54913.19;;;-145.06;100.00
59859;BME280;45734;53.648;9.566;2023-11-21T13:13:23;54909.16;;;-145.06;100.00
59859;BME280;45734;53.648;9.566;2023-11-21T13:18:25;54884.84;;;-145.06;100.00
59859;BME280;45734;53.648;9.566;2023-11-21T13:23:28;54921.28;;;-145.06;100.00
59859;BME280;45734;53.648;9.566;2023-11-21T13:28:29;54884.84;;;-145.06;100.00
59859;BME280;45734;53.648;9.566;2023-11-21T13:33:33;54927.38;;;-145.06;100.00
59859;BME280;45734;53.648;9.566;2023-11-21T13:38:34;54925.34;;;-145.06;100.00
59859;BME280;45734;53.648;9.566;2023-11-21T13:43:35;54876.72;;;-145.06;100.00
59859;BME280;45734;53.648;9.566;2023-11-21T13:48:37;54913.19;;;-145.06;100.00
59859;BME280;45734;53.648;9.566;2023-11-21T13:53:48;54931.44;;;-145.06;100.00
59859;BME280;45734;53.648;9.566;2023-11-21T13:58:52;54923.31;;;-145.06;100.00
59859;BME280;45734;53.648;9.566;2023-11-21T14:03:54;54929.41;;;-145.06;100.00
59859;BME280;45734;53.648;9.566;2023-11-21T14:09:02;54937.50;;;-145.06;100.00
59859;BME280;45734;53.648;9.566;2023-11-21T14:14:05;54941.56;;;-145.06;100.00
59859;BME280;45734;53.648;9.566;2023-11-21T14:19:05;54917.25;;;-145.06;100.00
59859;BME280;45734;53.648;9.566;2023-11-21T14:24:15;54917.25;;;-145.06;100.00
59859;BME280;45734;53.648;9.566;2023-11-21T14:29:18;54935.47;;;-145.06;100.00
59859;BME280;45734;53.648;9.566;2023-11-21T14:34:24;54925.34;;;-145.06;100.00
59859;BME280;45734;53.648;9.566;2023-11-21T14:39:24;54923.31;;;-145.06;100.00
59859;BME280;45734;53.648;9.566;2023-11-21T14:44:27;54945.59;;;-145.06;100.00
59859;BME280;45734;53.648;9.566;2023-11-21T14:49:32;54949.66;;;-145.06;100.00
59859;BME280;45734;53.648;9.566;2023-11-21T14:54:45;54935.47;;;-145.06;100.00
59859;BME280;45734;53.648;9.566;2023-11-21T14:59:48;54955.72;;;-145.06;100.00
59859;BME280;45734;53.648;9.566;2023-11-21T15:04:52;54953.72;;;-145.06;100.00
59859;BME280;45734;53.648;9.566;2023-11-21T15:09:56;54915.22;;;-145.06;100.00
59859;BME280;45734;53.648;9.566;2023-11-21T15:14:56;54957.75;;;-145.06;100.00
59859;BME280;45734;53.648;9.566;2023-11-21T15:19:57;54919.28;;;-145.06;100.00
59859;BME280;45734;53.648;9.566;2023-11-21T15:24:58;54978.03;;;-145.06;100.00
59859;BME280;45734;53.648;9.566;2023-11-21T15:29:59;54953.72;;;-145.06;100.00
59859;BME280;45734;53.648;9.566;2023-11-21T15:34:59;54957.75;;;-145.06;100.00
59859;BME280;45734;53.648;9.566;2023-11-21T15:39:59;54933.44;;;-145.06;100.00
59859;BME280;45734;53.648;9.566;2023-11-21T15:45:00;54919.28;;;-145.06;100.00
59859;BME280;45734;53.648;9.566;2023-11-21T15:50:00;54921.28;;;-145.06;100.00
59859;BME280;45734;53.648;9.566;2023-11-21T15:55:01;54941.56;;;-145.06;100.00
59859;BME280;45734;53.648;9.566;2023-11-21T16:00:01;54965.88;;;-145.06;100.00
59859;BME280;45734;53.648;9.566;2023-11-21T16:05:08;54961.81;;;-145.06;100.00
59859;BME280;45734;53.648;9.566;2023-11-21T16:10:09;54929.41;;;-145.06;100.00
59859;BME280;45734;53.648;9.566;2023-11-21T16:15:10;54984.09;;;-145.06;100.00
59859;BME280;45734;53.648;9.566;2023-11-21T16:20:11;54933.44;;;-145.06;100.00
59859;BME280;45734;53.648;9.566;2023-11-21T16:25:15;54945.59;;;-145.06;100.00
59859;BME280;45734;53.648;9.566;2023-11-21T16:30:15;54945.59;;;-145.06;100.00
59859;BME280;45734;53.648;9.566;2023-11-21T16:35:15;54953.72;;;-145.06;100.00
59859;BME280;45734;53.648;9.566;2023-11-21T16:40:16;54947.63;;;-145.06;100.00
59859;BME280;45734;53.648;9.566;2023-11-21T16:45:16;54963.84;;;-145.06;100.00
59859;BME280;45734;53.648;9.566;2023-11-21T16:50:16;54971.94;;;-145.06;100.00
59859;BME280;45734;53.648;9.566;2023-11-21T16:55:17;55018.53;;;-145.06;100.00
59859;BME280;45734;53.648;9.566;2023-11-21T17:00:17;55010.44;;;-145.06;100.00
59859;BME280;45734;53.648;9.566;2023-11-21T17:05:21;55014.47;;;-145.06;100.00
59859;BME280;45734;53.648;9.566;2023-11-21T17:10:21;55008.41;;;-145.06;100.00
59859;BME280;45734;53.648;9.566;2023-11-21T17:15:22;55022.59;;;-145.06;100.00
59859;BME280;45734;53.648;9.566;2023-11-21T17:20:22;55028.66;;;-145.06;100.00
59859;BME280;45734;53.648;9.566;2023-11-21T17:25:23;55028.66;;;-145.06;100.00
59859;BME280;45734;53.648;9.566;2023-11-21T17:30:23;55022.59;;;-145.06;100.00
59859;BME280;45734;53.648;9.566;2023-11-21T17:35:23;55024.59;;;-145.06;100.00
59859;BME280;45734;53.648;9.566;2023-11-21T17:40:23;55036.75;;;-145.06;100.00
59859;BME280;45734;53.648;9.566;2023-11-21T17:45:26;55042.84;;;-145.06;100.00
59859;BME280;45734;53.648;9.566;2023-11-21T17:50:26;55018.53;;;-145.06;100.00
59859;BME280;45734;53.648;9.566;2023-11-21T17:55:26;55061.06;;;-145.06;100.00
59859;BME280;45734;53.648;9.566;2023-11-21T18:00:27;55079.31;;;-145.06;100.00
59859;BME280;45734;53.648;9.566;2023-11-21T18:05:27;55057.03;;;-145.06;100.00
59859;BME280;45734;53.648;9.566;2023-11-21T18:10:28;55061.06;;;-145.06;100.00
59859;BME280;45734;53.648;9.566;2023-11-21T18:15:28;55083.34;;;-145.06;100.00
59859;BME280;45734;53.648;9.566;2023-11-21T18:20:28;55075.25;;;-145.06;100.00
59859;BME280;45734;53.648;9.566;2023-11-21T18:25:30;55085.38;;;-145.06;100.00
59859;BME280;45734;53.648;9.566;2023-11-21T18:30:30;55099.56;;;-145.06;100.00
59859;BME280;45734;53.648;9.566;2023-11-21T18:35:30;55073.22;;;-145.06;100.00
59859;BME280;45734;53.648;9.566;2023-11-21T18:40:32;55071.19;;;-145.06;100.00
59859;BME280;45734;53.648;9.566;2023-11-21T18:45:32;55083.34;;;-145.06;100.00
59859;BME280;45734;53.648;9.566;2023-11-21T18:50:34;55083.34;;;-145.06;100.00
59859;BME280;45734;53.648;9.566;2023-11-21T18:55:35;55057.03;;;-145.06;100.00
59859;BME280;45734;53.648;9.566;2023-11-21T19:00:35;55063.09;;;-145.06;100.00
59859;BME280;45734;53.648;9.566;2023-11-21T19:05:37;55069.19;;;-145.06;100.00
59859;BME280;45734;53.648;9.566;2023-11-21T19:10:38;55081.34;;;-145.06;100.00
59859;BME280;45734;53.648;9.566;2023-11-21T19:15:38;55097.53;;;-145.06;100.00
59859;BME280;45734;53.648;9.566;2023-11-21T19:20:38;55087.41;;;-145.06;100.00
59859;BME280;45734;53.648;9.566;2023-11-21T19:25:39;55063.09;;;-145.06;100.00
59859;BME280;45734;53.648;9.566;2023-11-21T19:30:39;55050.94;;;-145.06;100.00
59859;BME280;45734;53.648;9.566;2023-11-21T19:35:42;55063.09;;;-145.06;100.00
59859;BME280;45734;53.648;9.566;2023-11-21T19:40:42;55032.72;;;-145.06;100.00
59859;BME280;45734;53.648;9.566;2023-11-21T19:45:44;55038.78;;;-145.06;100.00
59859;BME280;45734;53.648;9.566;2023-11-21T19:50:44;55038.78;;;-145.06;100.00
59859;BME280;45734;53.648;9.566;2023-11-21T19:55:44;55040.81;;;-145.06;100.00
59859;BME280;45734;53.648;9.566;2023-11-21T20:00:45;55032.72;;;-145.06;100.00
59859;BME280;45734;53.648;9.566;2023-11-21T20:05:47;55028.66;;;-145.06;100.00
59859;BME280;45734;53.648;9.566;2023-11-21T20:10:49;55057.03;;;-145.06;100.00
59859;BME280;45734;53.648;9.566;2023-11-21T20:15:49;55016.50;;;-145.06;100.00
59859;BME280;45734;53.648;9.566;2023-11-21T20:20:50;55046.91;;;-145.06;100.00
59859;BME280;45734;53.648;9.566;2023-11-21T20:25:50;55022.59;;;-145.06;100.00
59859;BME280;45734;53.648;9.566;2023-11-21T20:30:50;55040.81;;;-145.06;100.00
59859;BME280;45734;53.648;9.566;2023-11-21T20:35:50;55034.75;;;-145.06;100.00
59859;BME280;45734;53.648;9.566;2023-11-21T20:40:51;55044.88;;;-145.06;100.00
59859;BME280;45734;53.648;9.566;2023-11-21T20:45:51;55038.78;;;-145.06;100.00
59859;BME280;45734;53.648;9.566;2023-11-21T20:50:52;55038.78;;;-145.06;100.00
59859;BME280;45734;53.648;9.566;2023-11-21T20:55:53;55014.47;;;-145.06;100.00
59859;BME280;45734;53.648;9.566;2023-11-21T21:00:53;55057.03;;;-145.06;100.00
59859;BME280;45734;53.648;9.566;2023-11-21T21:05:54;55061.06;;;-145.06;100.00
59859;BME280;45734;53.648;9.566;2023-11-21T21:10:54;55022.59;;;-145.06;100.00
59859;BME280;45734;53.648;9.566;2023-11-21T21:15:54;55014.47;;;-145.06;100.00
59859;BME280;45734;53.648;9.566;2023-11-21T21:20:55;55030.69;;;-145.06;100.00
59859;BME280;45734;53.648;9.566;2023-11-21T21:25:55;55030.69;;;-145.06;100.00
59859;BME280;45734;53.648;9.566;2023-11-21T21:30:56;55040.81;;;-145.06;100.00
59859;BME280;45734;53.648;9.566;2023-11-21T21:35:57;55024.59;;;-145.06;100.00
59859;BME280;45734;53.648;9.566;2023-11-21T21:40:59;55004.34;;;-145.06;100.00
59859;BME280;45734;53.648;9.566;2023-11-21T21:45:59;55004.34;;;-145.06;100.00
59859;BME280;45734;53.648;9.566;2023-11-21T21:51:00;54998.28;;;-145.06;100.00
59859;BME280;45734;53.648;9.566;2023-11-21T21:56:00;55042.84;;;-145.06;100.00
59859;BME280;45734;53.648;9.566;2023-11-21T22:01:02;55059.03;;;-145.06;100.00
59859;BME280;45734;53.648;9.566;2023-11-21T22:06:03;55042.84;;;-145.06;100.00
59859;BME280;45734;53.648;9.566;2023-11-21T22:11:04;55040.81;;;-145.06;100.00
59859;BME280;45734;53.648;9.566;2023-11-21T22:16:04;54998.28;;;-145.06;100.00
59859;BME280;45734;53.648;9.566;2023-11-21T22:21:05;55048.91;;;-145.06;100.00
59859;BME280;45734;53.648;9.566;2023-11-21T22:26:05;55067.16;;;-145.06;100.00
59859;BME280;45734;53.648;9.566;2023-11-21T22:31:07;55030.69;;;-145.06;100.00
59859;BME280;45734;53.648;9.566;2023-11-21T22:36:12;55050.94;;;-145.06;100.00
59859;BME280;45734;53.648;9.566;2023-11-21T22:41:23;55026.63;;;-145.06;100.00
59859;BME280;45734;53.648;9.566;2023-11-21T22:46:23;55042.84;;;-145.06;100.00
59859;BME280;45734;53.648;9.566;2023-11-21T22:51:23;55030.69;;;-145.06;100.00
59859;BME280;45734;53.648;9.566;2023-11-21T22:56:24;55034.75;;;-145.06;100.00
59859;BME280;45734;53.648;9.566;2023-11-21T23:01:25;55042.84;;;-145.06;100.00
59859;BME280;45734;53.648;9.566;2023-11-21T23:06:25;55044.88;;;-145.06;100.00
59859;BME280;45734;53.648;9.566;2023-11-21T23:11:28;55038.78;;;-145.06;100.00
59859;BME280;45734;53.648;9.566;2023-11-21T23:16:29;55022.59;;;-145.06;100.00
59859;BME280;45734;53.648;9.566;2023-11-21T23:21:29;55079.31;;;-145.06;100.00
59859;BME280;45734;53.648;9.566;2023-11-21T23:26:29;55050.94;;;-145.06;100.00
59859;BME280;45734;53.648;9.566;2023-11-21T23:31:30;55038.78;;;-145.06;100.00
59859;BME280;45734;53.648;9.566;2023-11-21T23:36:30;55050.94;;;-145.06;100.00
59859;BME280;45734;53.648;9.566;2023-11-21T23:41:30;55061.06;;;-145.06;100.00
59859;BME280;45734;53.648;9.566;2023-11-21T23:46:30;55087.41;;;-145.06;100.00
59859;BME280;45734;53.648;9.566;2023-11-21T23:51:34;55087.41;;;-145.06;100.00
59859;BME280;45734;53.648;9.566;2023-11-21T23:56:35;55063.09;;;-145.06;100.00
